createdAt,value
2023-01-28T00:04:24.137Z,23.58
2023-01-28T00:09:27.786Z,22.50
2023-01-28T00:14:31.355Z,22.38
2023-01-28T00:19:36.324Z,22.25
2023-01-28T00:24:39.747Z,21.40
2023-01-28T00:29:43.433Z,20.30
2023-01-28T00:34:50.105Z,22.30
2023-01-28T00:39:53.512Z,19.83
2023-01-28T00:44:56.907Z,18.00
2023-01-28T00:50:01.673Z,18.85
2023-01-28T00:55:05.739Z,18.95
2023-01-28T01:00:10.505Z,17.77
2023-01-28T01:05:16.132Z,16.80
2023-01-28T01:10:21.136Z,16.80
2023-01-28T01:15:24.918Z,17.80
2023-01-28T01:20:33.450Z,19.63
2023-01-28T01:25:36.883Z,19.77
2023-01-28T01:30:40.318Z,19.15
2023-01-28T01:35:45.301Z,17.35
2023-01-28T01:40:48.851Z,18.70
2023-01-28T01:45:55.217Z,17.75
2023-01-28T01:51:03.167Z,18.25
2023-01-28T01:56:09.566Z,17.42
2023-01-28T02:01:14.501Z,16.90
2023-01-28T02:06:19.271Z,17.67
2023-01-28T02:11:24.203Z,16.55
2023-01-28T02:16:29.004Z,15.98
2023-01-28T02:22:08.774Z,18.73
2023-01-28T02:27:22.906Z,18.70
2023-01-28T02:32:34.001Z,15.75
2023-01-28T02:37:42.703Z,15.15
2023-01-28T02:42:46.091Z,14.88
2023-01-28T02:48:00.123Z,15.30
2023-01-28T02:53:31.755Z,13.60
2023-01-28T02:58:40.200Z,14.27
2023-01-28T03:03:55.639Z,12.98
2023-01-28T03:09:21.494Z,13.18
2023-01-28T03:14:44.098Z,12.45
2023-01-28T03:20:07.787Z,13.40
2023-01-28T03:25:33.139Z,14.40
2023-01-28T03:31:01.738Z,13.43
2023-01-28T03:36:26.994Z,13.93
2023-01-28T03:41:30.419Z,13.80
2023-01-28T03:46:35.914Z,14.52
2023-01-28T03:51:40.940Z,13.80
2023-01-28T03:56:44.323Z,15.98
2023-01-28T04:01:50.710Z,16.02
2023-01-28T04:06:56.541Z,16.25
2023-01-28T04:12:00.205Z,13.93
2023-01-28T04:17:03.687Z,15.05
2023-01-28T04:22:12.568Z,14.68
2023-01-28T04:27:15.976Z,14.45
2023-01-28T04:32:19.649Z,14.05
2023-01-28T04:37:24.483Z,15.07
2023-01-28T04:42:27.896Z,14.75
2023-01-28T04:47:31.724Z,13.85
2023-01-28T04:52:36.497Z,14.77
2023-01-28T04:57:39.865Z,13.30
2023-01-28T05:02:43.274Z,15.32
2023-01-28T05:07:52.387Z,16.42
2023-01-28T05:12:56.088Z,17.58
2023-01-28T05:18:00.144Z,15.15
2023-01-28T05:23:05.506Z,15.88
2023-01-28T05:28:09.282Z,16.95
2023-01-28T05:33:12.700Z,17.90
2023-01-28T05:38:18.049Z,18.67
2023-01-28T05:43:22.256Z,17.63
2023-01-28T05:48:25.704Z,18.45
2023-01-28T05:53:30.513Z,20.65
2023-01-28T05:58:34.028Z,21.25
2023-01-28T06:03:37.402Z,21.00
2023-01-28T06:08:42.297Z,24.23
2023-01-28T06:13:45.684Z,20.58
2023-01-28T06:18:49.122Z,23.13
2023-01-28T06:23:54.291Z,20.58
2023-01-28T06:28:57.662Z,20.80
2023-01-28T06:34:01.097Z,19.17
2023-01-28T06:39:06.038Z,19.83
2023-01-28T06:44:09.829Z,20.73
2023-01-28T06:49:13.242Z,20.00
2023-01-28T06:54:18.054Z,18.20
2023-01-28T06:59:21.734Z,18.45
2023-01-28T07:04:25.213Z,19.20
2023-01-28T07:09:30.029Z,18.25
2023-01-28T07:14:33.417Z,17.73
2023-01-28T07:19:38.002Z,21.05
2023-01-28T07:24:43.554Z,17.98
2023-01-28T07:29:47.071Z,16.45
2023-01-28T07:34:50.650Z,18.52
2023-01-28T07:39:55.802Z,18.13
2023-01-28T07:44:59.230Z,16.05
2023-01-28T07:50:02.620Z,18.20
2023-01-28T07:55:08.072Z,19.08
2023-01-28T08:00:13.290Z,17.98
2023-01-28T08:05:18.308Z,19.02
2023-01-28T08:10:23.139Z,19.23
2023-01-28T08:15:27.587Z,17.92
2023-01-28T08:20:31.708Z,17.33
2023-01-28T08:25:37.655Z,18.25
2023-01-28T08:30:41.327Z,19.13
2023-01-28T08:35:45.401Z,18.27
2023-01-28T08:40:51.134Z,18.70
2023-01-28T08:45:54.500Z,19.25
2023-01-28T08:51:00.209Z,18.25
2023-01-28T08:56:05.346Z,19.42
2023-01-28T09:01:08.853Z,19.55
2023-01-28T09:06:12.484Z,18.98
2023-01-28T09:11:17.313Z,17.83
2023-01-28T09:16:21.519Z,17.65
2023-01-28T09:21:24.922Z,17.17
2023-01-28T09:26:29.997Z,16.10
2023-01-28T09:31:33.510Z,18.13
2023-01-28T09:36:37.378Z,20.33
2023-01-28T09:41:56.008Z,20.73
2023-01-28T09:47:02.920Z,19.08
2023-01-28T09:52:06.462Z,18.90
2023-01-28T09:57:18.453Z,19.33
2023-01-28T10:02:36.634Z,17.92
2023-01-28T10:07:49.567Z,16.63
2023-01-28T10:13:21.774Z,17.80
2023-01-28T10:18:36.234Z,16.42
2023-01-28T10:23:48.952Z,15.85
2023-01-28T10:28:58.158Z,15.48
2023-01-28T10:34:02.054Z,15.57
2023-01-28T10:39:06.795Z,15.90
2023-01-28T10:44:18.329Z,16.23
2023-01-28T10:49:26.478Z,15.85
2023-01-28T10:54:30.627Z,16.70
2023-01-28T10:59:41.652Z,16.75
2023-01-28T11:04:45.028Z,18.00
2023-01-28T11:09:50.253Z,17.70
2023-01-28T11:14:56.931Z,18.67
2023-01-28T11:20:02.697Z,17.98
2023-01-28T11:25:15.475Z,18.00
2023-01-28T11:30:25.499Z,18.02
2023-01-28T11:35:30.849Z,16.65
2023-01-28T11:40:34.345Z,16.65
2023-01-28T11:45:45.389Z,16.38
2023-01-28T11:50:58.303Z,14.07
2023-01-28T11:56:17.434Z,14.77
2023-01-28T12:01:27.826Z,13.48
2023-01-28T12:06:47.039Z,11.65
2023-01-28T12:12:12.797Z,10.77
2023-01-28T12:17:26.450Z,9.70
2023-01-28T12:22:59.153Z,10.18
2023-01-28T12:28:12.347Z,9.45
2023-01-28T12:33:50.339Z,9.30
2023-01-28T12:39:05.302Z,8.77
2023-01-28T12:44:13.000Z,10.10
2023-01-28T12:49:22.959Z,10.48
2023-01-28T12:54:30.131Z,11.60
2023-01-28T12:59:40.751Z,12.82
2023-01-28T13:04:52.656Z,10.40
2023-01-28T13:10:04.820Z,10.30
2023-01-28T13:15:15.297Z,12.73
2023-01-28T13:20:37.693Z,10.30
2023-01-28T13:25:50.406Z,8.70
2023-01-28T13:31:02.835Z,10.38
2023-01-28T13:36:23.694Z,8.40
2023-01-28T13:41:38.897Z,7.68
2023-01-28T13:46:42.536Z,8.82
2023-01-28T13:51:59.691Z,8.45
2023-01-28T13:57:39.231Z,8.02
2023-01-28T14:03:21.271Z,7.93
2023-01-28T14:09:04.592Z,7.07
2023-01-28T14:14:42.521Z,6.80
2023-01-28T14:19:47.277Z,6.50
2023-01-28T14:24:52.635Z,7.18
2023-01-28T14:30:07.920Z,5.13
2023-01-28T14:35:17.442Z,6.05
2023-01-28T14:40:22.749Z,6.93
2023-01-28T14:45:50.513Z,5.68
2023-01-28T14:51:07.119Z,6.25
2023-01-28T14:56:21.742Z,5.72
2023-01-28T15:01:26.998Z,5.40
2023-01-28T15:06:36.592Z,5.57
2023-01-28T15:11:45.018Z,4.22
2023-01-28T15:16:50.197Z,3.83
2023-01-28T15:21:57.690Z,3.97
2023-01-28T15:27:03.092Z,4.53
2023-01-28T15:32:07.212Z,4.70
2023-01-28T15:37:13.172Z,4.95
2023-01-28T15:42:23.223Z,5.55
2023-01-28T15:47:30.119Z,5.43
2023-01-28T15:52:36.010Z,6.47
2023-01-28T15:57:40.811Z,6.63
2023-01-28T16:02:46.130Z,6.93
2023-01-28T16:07:49.732Z,6.85
2023-01-28T16:12:57.335Z,6.85
2023-01-28T16:18:00.806Z,6.22
2023-01-28T16:23:05.167Z,7.43
2023-01-28T16:28:18.212Z,7.30
2023-01-28T16:33:22.977Z,7.28
2023-01-28T16:43:31.614Z,8.98
2023-01-28T16:48:35.061Z,8.52
2023-01-28T16:53:39.258Z,8.02
2023-01-28T16:58:46.700Z,7.80
2023-01-28T17:03:50.679Z,8.23
2023-01-28T17:08:54.080Z,8.82
2023-01-28T17:13:58.967Z,8.48
2023-01-28T17:19:02.345Z,7.30
2023-01-28T17:24:07.506Z,7.40
2023-01-28T17:29:12.354Z,8.18
2023-01-28T17:34:15.929Z,8.05
2023-01-28T17:39:19.748Z,8.65
2023-01-28T17:44:24.713Z,8.75
2023-01-28T17:49:29.323Z,8.82
2023-01-28T17:54:34.692Z,8.05
2023-01-28T17:59:41.883Z,8.80
2023-01-28T18:04:45.365Z,7.97
2023-01-28T18:09:50.009Z,7.82
2023-01-28T18:14:56.643Z,8.77
2023-01-28T18:20:00.391Z,10.27
2023-01-28T18:25:05.394Z,9.57
2023-01-28T18:30:11.906Z,9.18
2023-01-28T18:35:16.006Z,9.20
2023-01-28T18:40:19.727Z,11.02
2023-01-28T18:45:26.264Z,9.52
2023-01-28T18:50:32.370Z,8.30
2023-01-28T18:55:37.115Z,8.07
2023-01-28T19:00:45.099Z,10.02
2023-01-28T19:05:48.558Z,10.10
2023-01-28T19:10:56.995Z,9.07
2023-01-28T19:16:04.507Z,8.23
2023-01-28T19:21:11.381Z,8.15
2023-01-28T19:26:18.223Z,6.45
2023-01-28T19:31:25.154Z,7.40
2023-01-28T19:36:29.998Z,5.35
2023-01-28T19:41:33.510Z,5.97
2023-01-28T19:46:38.757Z,4.95
2023-01-28T19:51:42.125Z,4.45
2023-01-28T19:56:45.539Z,4.32
2023-01-28T20:01:50.673Z,5.00
2023-01-28T20:06:54.193Z,4.70
2023-01-28T20:11:57.954Z,4.38
2023-01-28T20:17:02.752Z,5.13
2023-01-28T20:22:06.545Z,4.20
2023-01-28T20:27:10.021Z,4.88
2023-01-28T20:32:19.115Z,5.88
2023-01-28T20:37:23.720Z,5.95
2023-01-28T20:42:27.143Z,6.70
2023-01-28T20:47:32.546Z,6.60
2023-01-28T20:52:35.954Z,6.65
2023-01-28T20:57:39.350Z,7.47
2023-01-28T21:02:46.028Z,6.50
2023-01-28T21:07:51.993Z,6.93
2023-01-28T21:12:55.440Z,8.43
2023-01-28T21:18:00.243Z,6.22
2023-01-28T21:23:03.671Z,5.95
2023-01-28T21:28:07.293Z,7.43
2023-01-28T21:33:12.529Z,6.63
2023-01-28T21:38:15.965Z,7.05
2023-01-28T21:43:20.162Z,7.53
2023-01-28T21:48:25.611Z,6.97
2023-01-28T21:53:29.111Z,7.50
2023-01-28T21:58:50.302Z,7.75
2023-01-28T22:03:55.182Z,9.85
2023-01-28T22:08:58.612Z,8.18
2023-01-28T22:14:02.051Z,8.57
2023-01-28T22:19:07.119Z,8.63
2023-01-28T22:24:12.715Z,7.13
2023-01-28T22:29:20.805Z,5.90
2023-01-28T22:34:25.955Z,6.45
2023-01-28T22:39:29.516Z,6.47
2023-01-28T22:44:33.023Z,6.32
2023-01-28T22:49:37.931Z,6.05
2023-01-28T22:54:41.365Z,5.40
2023-01-28T22:59:59.315Z,6.25
2023-01-28T23:05:05.522Z,5.28
2023-01-28T23:10:10.632Z,6.05
2023-01-28T23:15:31.949Z,4.80
2023-01-28T23:20:57.437Z,4.72
2023-01-28T23:26:01.158Z,5.03
2023-01-28T23:31:04.855Z,5.50
2023-01-28T23:36:10.133Z,5.95
2023-01-28T23:41:13.547Z,5.50
2023-01-28T23:46:19.394Z,5.78
2023-01-28T23:51:25.978Z,5.07
2023-01-28T23:56:29.612Z,5.63
